createdAt,value
2017-01-07T00:02:05.557Z,14.28
2017-01-07T00:07:05.901Z,14.33
2017-01-07T00:12:05.461Z,14.24
2017-01-07T00:17:05.419Z,14.16
2017-01-07T00:22:05.756Z,14.16
2017-01-07T00:27:05.705Z,14.15
2017-01-07T00:32:05.657Z,14.12
2017-01-07T00:37:05.601Z,14.02
2017-01-07T00:42:05.557Z,13.9
2017-01-07T00:47:05.508Z,13.88
2017-01-07T00:52:05.451Z,13.94
2017-01-07T00:57:05.019Z,13.75
2017-01-07T01:02:05.370Z,13.86
2017-01-07T01:07:05.329Z,13.84
2017-01-07T01:12:04.869Z,13.78
2017-01-07T01:17:05.208Z,13.72
2017-01-07T01:22:05.156Z,13.66
2017-01-07T01:27:05.110Z,13.69
2017-01-07T01:32:04.701Z,13.66
2017-01-07T01:37:04.621Z,13.57
2017-01-07T01:42:04.958Z,13.58
2017-01-07T01:47:04.907Z,13.53
2017-01-07T01:52:04.857Z,13.58
2017-01-07T01:57:04.421Z,13.47
2017-01-07T02:02:04.373Z,13.39
2017-01-07T02:07:04.716Z,13.45
2017-01-07T02:12:04.278Z,13.39
2017-01-07T02:17:04.613Z,13.35
2017-01-07T02:22:04.566Z,13.37
2017-01-07T02:27:04.508Z,13.35
2017-01-07T02:32:04.470Z,13.27
2017-01-07T02:37:04.017Z,13.2
2017-01-07T02:42:04.366Z,13.17
2017-01-07T02:47:04.309Z,13.14
2017-01-07T02:52:03.866Z,13.11
2017-01-07T02:57:03.826Z,13.1
2017-01-07T03:02:03.767Z,13.1
2017-01-07T03:07:04.102Z,13.01
2017-01-07T03:12:03.662Z,12.99
2017-01-07T03:17:03.228Z,12.99
2017-01-07T03:22:03.570Z,12.95
2017-01-07T03:27:03.910Z,13.02
2017-01-07T03:32:03.464Z,12.86
2017-01-07T03:37:03.412Z,12.89
2017-01-07T03:42:03.361Z,12.89
2017-01-07T03:47:03.704Z,12.88
2017-01-07T03:52:03.652Z,12.89
2017-01-07T03:57:03.596Z,12.81
2017-01-07T04:02:03.157Z,12.81
2017-01-07T04:07:03.497Z,12.86
2017-01-07T04:12:03.445Z,12.84
2017-01-07T04:17:03.390Z,12.81
2017-01-07T04:22:02.958Z,12.77
2017-01-07T04:27:02.901Z,12.8
2017-01-07T04:32:02.853Z,12.66
2017-01-07T04:37:02.799Z,12.7
2017-01-07T04:42:03.132Z,12.71
2017-01-07T04:47:03.092Z,12.74
2017-01-07T04:52:03.039Z,12.61
2017-01-07T04:57:02.593Z,12.62
2017-01-07T05:02:02.924Z,12.65
2017-01-07T05:07:02.495Z,12.61
2017-01-07T05:12:02.433Z,12.63
2017-01-07T05:17:02.378Z,12.58
2017-01-07T05:22:02.726Z,12.59
2017-01-07T05:27:02.662Z,12.62
2017-01-07T05:32:02.606Z,12.58
2017-01-07T05:37:02.564Z,12.53
2017-01-07T05:42:02.504Z,12.56
2017-01-07T05:47:02.068Z,12.53
2017-01-07T05:52:02.398Z,12.58
2017-01-07T05:57:02.350Z,12.48
2017-01-07T06:02:01.514Z,12.4
2017-01-07T06:07:02.247Z,12.41
2017-01-07T06:12:01.798Z,12.44
2017-01-07T06:17:01.745Z,12.44
2017-01-07T06:22:02.077Z,12.63
2017-01-07T06:27:02.025Z,13.11
2017-01-07T06:32:01.973Z,13.66
2017-01-07T06:37:01.931Z,14.31
2017-01-07T06:42:01.483Z,15.37
2017-01-07T06:47:01.822Z,15.71
2017-01-07T06:52:01.002Z,15.95
2017-01-07T06:57:01.734Z,16.22
2017-01-07T07:02:00.923Z,16.27
2017-01-07T07:07:01.661Z,16.29
2017-01-07T07:12:01.227Z,16.13
2017-01-07T07:17:01.577Z,16.11
2017-01-07T07:22:00.767Z,16.1
2017-01-07T07:27:01.109Z,15.8
2017-01-07T07:32:01.068Z,15.68
2017-01-07T07:37:01.033Z,15.56
2017-01-07T07:42:01.379Z,15.44
2017-01-07T07:47:01.339Z,15.31
2017-01-07T07:52:00.897Z,15.16
2017-01-07T07:57:01.261Z,15.33
2017-01-07T08:02:01.205Z,15.52
2017-01-07T08:07:00.775Z,15.71
2017-01-07T08:12:00.737Z,15.74
2017-01-07T08:17:00.690Z,15.81
2017-01-07T08:22:00.649Z,15.81
2017-01-07T08:27:01.023Z,15.91
2017-01-07T08:32:00.577Z,15.81
2017-01-07T08:37:00.526Z,15.89
2017-01-07T08:42:00.884Z,15.83
2017-01-07T08:47:00.449Z,15.75
2017-01-07T08:52:00.794Z,15.75
2017-01-07T08:57:00.751Z,15.68
2017-01-07T09:02:00.354Z,15.6
2017-01-07T09:07:00.671Z,15.62
2017-01-07T09:12:00.250Z,15.71
2017-01-07T09:17:00.193Z,15.63
2017-01-07T09:22:00.555Z,15.6
2017-01-07T09:27:00.506Z,15.78
2017-01-07T09:32:00.463Z,15.88
2017-01-07T09:37:00.039Z,15.89
2017-01-07T09:42:00.388Z,15.88
2017-01-07T09:47:00.356Z,15.98
2017-01-07T09:52:00.308Z,16.17
2017-01-07T09:56:59.873Z,16.17
2017-01-07T10:02:00.231Z,16.17
2017-01-07T10:06:59.799Z,16.17
2017-01-07T10:12:00.147Z,16.17
2017-01-07T10:17:00.123Z,16.18
2017-01-07T10:22:00.060Z,16.25
2017-01-07T10:26:59.638Z,16.29
2017-01-07T10:31:59.987Z,16.4
2017-01-07T10:36:59.554Z,16.66
2017-01-07T10:41:59.515Z,16.73
2017-01-07T10:46:59.494Z,16.74
2017-01-07T10:51:59.445Z,16.91
2017-01-07T10:56:59.806Z,16.88
2017-01-07T11:01:59.750Z,17.06
2017-01-07T11:06:59.744Z,17.02
2017-01-07T11:11:59.675Z,17.06
2017-01-07T11:16:59.639Z,17.02
2017-01-07T11:21:58.827Z,17.05
2017-01-07T11:26:59.569Z,17.1
2017-01-07T11:31:59.528Z,17.06
2017-01-07T11:36:59.494Z,17.15
2017-01-07T11:41:59.453Z,17.17
2017-01-07T11:46:59.029Z,17.18
2017-01-07T11:51:59.385Z,17.12
2017-01-07T11:56:59.360Z,17.1
2017-01-07T12:01:59.313Z,17.02
2017-01-07T12:06:59.275Z,17
2017-01-07T12:11:59.237Z,17.02
2017-01-07T12:16:59.198Z,17.09
2017-01-07T12:21:59.177Z,17.13
2017-01-07T12:26:59.151Z,17.09
2017-01-07T12:31:59.093Z,17.02
2017-01-07T12:36:58.676Z,16.91
2017-01-07T12:41:58.641Z,16.92
2017-01-07T12:46:58.996Z,16.9
2017-01-07T12:51:58.962Z,17.17
2017-01-07T12:56:58.539Z,17.24
2017-01-07T13:01:58.109Z,17.35
2017-01-07T13:06:58.855Z,17.45
2017-01-07T13:11:58.815Z,17.39
2017-01-07T13:16:58.389Z,17.54
2017-01-07T13:21:58.750Z,17.35
2017-01-07T13:26:58.314Z,17.38
2017-01-07T13:31:58.674Z,17.36
2017-01-07T13:36:58.643Z,17.43
2017-01-07T13:41:58.595Z,17.47
2017-01-07T13:46:58.181Z,17.62
2017-01-07T13:51:58.530Z,17.6
2017-01-07T13:56:58.116Z,17.68
2017-01-07T14:01:58.460Z,17.55
2017-01-07T14:06:58.419Z,17.63
2017-01-07T14:11:57.604Z,17.69
2017-01-07T14:16:58.358Z,17.6
2017-01-07T14:21:58.322Z,17.58
2017-01-07T14:26:58.280Z,17.65
2017-01-07T14:31:58.246Z,17.65
2017-01-07T14:36:57.824Z,17.68
2017-01-07T17:53:31.313Z,18.97
2017-01-07T17:58:31.272Z,18.97
2017-01-07T18:03:30.673Z,19
2017-01-07T18:08:31.221Z,19
2017-01-07T18:13:30.801Z,18.93
2017-01-07T18:18:31.174Z,18.96
2017-01-07T18:23:31.154Z,19.05
2017-01-07T18:28:31.119Z,19.2
2017-01-07T18:33:30.714Z,19.23
2017-01-07T18:38:30.675Z,19.45
2017-01-07T18:43:31.043Z,19.5
2017-01-07T18:48:31.016Z,19.57
2017-01-07T18:53:30.988Z,19.67
2017-01-07T18:58:30.580Z,19.71
2017-01-07T19:03:30.557Z,19.71
2017-01-07T19:08:30.540Z,19.7
2017-01-07T19:13:30.904Z,19.71
2017-01-07T19:18:30.493Z,19.53
2017-01-07T19:23:30.866Z,19.43
2017-01-07T19:28:30.450Z,19.31
2017-01-07T19:33:30.480Z,19.25
2017-01-07T19:38:30.014Z,19.25
2017-01-07T19:43:30.909Z,19.17
2017-01-07T19:48:30.161Z,19.06
2017-01-07T19:53:30.478Z,19.1
2017-01-07T19:58:30.475Z,19.05
2017-01-07T20:03:30.727Z,18.97
2017-01-07T20:08:31.128Z,18.91
2017-01-07T20:13:30.681Z,18.89
2017-01-07T20:18:30.789Z,18.94
2017-01-07T20:23:30.846Z,18.87
2017-01-07T20:28:30.765Z,18.94
2017-01-07T20:33:30.741Z,18.87
2017-01-07T20:38:31.013Z,18.94
2017-01-07T20:43:30.685Z,18.81
2017-01-07T20:48:30.136Z,18.78
2017-01-07T20:53:30.741Z,18.69
2017-01-07T20:58:30.611Z,18.57
2017-01-07T21:03:30.845Z,18.47
2017-01-07T21:08:30.579Z,18.5
2017-01-07T21:13:30.661Z,18.41
2017-01-07T21:18:30.097Z,18.36
2017-01-07T21:23:30.416Z,18.32
2017-01-07T21:28:29.680Z,18.34
2017-01-07T21:33:29.825Z,18.29
2017-01-07T21:38:30.037Z,18.23
2017-01-07T21:43:29.979Z,18.24
2017-01-07T21:48:29.802Z,18.23
2017-01-07T21:53:30.150Z,18.21
2017-01-07T21:58:30.258Z,18.21
2017-01-07T22:03:30.188Z,18.23
2017-01-07T22:08:29.654Z,18.26
2017-01-07T22:13:30.083Z,18.27
2017-01-07T22:18:30.175Z,18.26
2017-01-07T22:23:29.996Z,18.23
2017-01-07T22:28:29.557Z,18.27
2017-01-07T22:33:29.534Z,18.32
2017-01-07T22:38:29.480Z,18.24
2017-01-07T22:43:29.831Z,18.31
2017-01-07T22:48:29.030Z,18.19
2017-01-07T22:53:29.777Z,18.14
2017-01-07T22:58:28.970Z,18.06
2017-01-07T23:03:29.333Z,17.98
2017-01-07T23:08:29.317Z,17.94
2017-01-07T23:13:29.279Z,17.83
2017-01-07T23:18:28.861Z,17.71
2017-01-07T23:23:29.611Z,17.69
2017-01-07T23:28:29.201Z,17.52
2017-01-07T23:33:29.558Z,17.43
2017-01-07T23:38:29.516Z,17.42
2017-01-07T23:43:29.493Z,17.22
2017-01-07T23:48:29.459Z,17.12
2017-01-07T23:53:29.443Z,17
2017-01-07T23:58:28.621Z,17
